Time;durP1;ratioP1;P1;durP2;ratioP2;P2;SDS_P1;SDS_P2;PMS_P1;PMS_P2;Temp;Humidity;BMP_temperature;BMP_pressure;BME280_temperature;BME280_humidity;BME280_pressure;Samples;Min_cycle;Max_cycle;Signal;HPM_P1;HPM_P2
2021/08/30 00:01:36;;;;;;;30.30;18.77;;;;;;;14.34;100.00;101712.31;4971551;28;20042;-83
2021/08/30 00:04:02;;;;;;;28.60;18.40;;;;;;;14.37;100.00;101714.66;4971380;28;20038;-79
2021/08/30 00:06:27;;;;;;;26.40;17.40;;;;;;;14.37;100.00;101714.66;4955544;28;20153;-82
2021/08/30 00:08:53;;;;;;;32.85;20.83;;;;;;;14.35;100.00;101719.25;4949388;28;20095;-82
2021/08/30 00:11:19;;;;;;;32.42;19.13;;;;;;;14.28;100.00;101703.19;4953651;28;20030;-80
2021/08/30 00:13:45;;;;;;;31.40;18.25;;;;;;;14.29;100.00;101706.66;4989362;28;20176;-81
2021/08/30 00:16:11;;;;;;;29.50;18.45;;;;;;;14.26;100.00;101704.28;4986081;28;20042;-80
2021/08/30 00:18:36;;;;;;;27.60;17.90;;;;;;;14.19;100.00;101704.06;4968289;28;20049;-79
2021/08/30 00:21:02;;;;;;;33.70;17.77;;;;;;;14.20;100.00;101703.06;4987808;28;20421;-81
2021/08/30 00:23:27;;;;;;;28.02;19.23;;;;;;;14.07;100.00;101684.13;4955495;28;20047;-80
2021/08/30 00:25:53;;;;;;;35.67;19.77;;;;;;;14.30;100.00;101698.59;4956728;28;20030;-80
2021/08/30 00:28:19;;;;;;;34.80;21.23;;;;;;;14.34;100.00;101701.75;4955926;28;20034;-82
2021/08/30 00:30:44;;;;;;;42.28;22.25;;;;;;;14.40;100.00;101701.97;4954016;28;20035;-80
2021/08/30 00:33:10;;;;;;;38.58;21.48;;;;;;;14.51;100.00;101706.22;4970038;28;20042;-80
2021/08/30 00:35:35;;;;;;;38.15;21.95;;;;;;;14.50;100.00;101701.09;4954681;28;20045;-80
2021/08/30 00:38:01;;;;;;;35.25;21.45;;;;;;;14.50;100.00;101704.56;4959131;28;20034;-79
2021/08/30 00:40:26;;;;;;;31.90;19.65;;;;;;;14.56;100.00;101706.63;4987462;28;20551;-80
2021/08/30 00:42:52;;;;;;;37.47;21.27;;;;;;;14.55;100.00;101706.78;4985779;28;20065;-80
2021/08/30 00:45:17;;;;;;;31.10;20.13;;;;;;;14.54;100.00;101699.81;4969811;28;20061;-80
2021/08/30 00:47:45;;;;;;;33.15;20.02;;;;;;;14.50;100.00;101693.19;4969035;28;20124;-81
2021/08/30 00:50:13;;;;;;;30.80;18.70;;;;;;;14.51;100.00;101711.50;4942319;28;20485;-80
2021/08/30 00:52:42;;;;;;;29.02;18.40;;;;;;;14.47;100.00;101696.97;4987316;28;20034;-81
2021/08/30 00:55:08;;;;;;;31.58;18.60;;;;;;;14.48;100.00;101711.81;4968179;28;20030;-83
2021/08/30 00:57:34;;;;;;;30.50;20.50;;;;;;;14.48;100.00;101711.81;4968994;28;20037;-80
2021/08/30 00:59:59;;;;;;;35.03;19.73;;;;;;;14.39;100.00;101710.91;4970912;28;20492;-79
2021/08/30 01:02:25;;;;;;;30.27;18.42;;;;;;;14.39;100.00;101710.91;4954253;28;20512;-80
2021/08/30 01:04:50;;;;;;;36.38;21.05;;;;;;;14.35;100.00;101706.03;4970985;28;20134;-81
2021/08/30 01:07:30;;;;;;;38.22;22.10;;;;;;;14.44;100.00;101712.25;4954705;28;20488;-82
2021/08/30 01:10:10;;;;;;;29.42;19.50;;;;;;;14.38;100.00;101709.22;4952047;28;20045;-80
2021/08/30 01:12:44;;;;;;;31.13;20.40;;;;;;;14.34;100.00;101710.50;4971256;28;20037;-79
2021/08/30 01:15:28;;;;;;;37.80;22.20;;;;;;;14.28;100.00;101711.09;4958868;28;20098;-81
2021/08/30 01:17:55;;;;;;;34.17;20.75;;;;;;;14.34;100.00;101718.41;4988685;28;20034;-80
2021/08/30 01:20:34;;;;;;;35.13;20.23;;;;;;;14.25;100.00;101714.03;4971002;28;20092;-80
2021/08/30 01:23:01;;;;;;;32.97;19.25;;;;;;;14.26;100.00;101717.47;4962810;28;20141;-79
2021/08/30 01:25:31;;;;;;;32.90;20.90;;;;;;;14.30;100.00;101724.16;4971531;28;20034;-80
2021/08/30 01:27:57;;;;;;;38.28;20.65;;;;;;;14.31;100.00;101723.97;4972242;28;20508;-79
2021/08/30 01:30:25;;;;;;;33.53;20.90;;;;;;;14.28;100.00;101721.66;4971668;28;20026;-81
2021/08/30 01:32:53;;;;;;;31.23;19.75;;;;;;;14.28;100.00;101726.09;4950231;28;20519;-82
2021/08/30 01:35:21;;;;;;;30.15;20.52;;;;;;;14.35;100.00;101725.38;4985518;28;20057;-80
2021/08/30 01:37:51;;;;;;;38.83;20.70;;;;;;;14.39;100.00;101721.47;4942270;28;20068;-83
2021/08/30 01:40:20;;;;;;;35.72;21.23;;;;;;;14.42;100.00;101720.31;4953982;28;20023;-79
2021/08/30 01:42:48;;;;;;;41.28;21.50;;;;;;;14.46;100.00;101731.41;4956591;28;20046;-83
2021/08/30 01:45:19;;;;;;;32.33;20.38;;;;;;;14.42;100.00;101725.59;4975051;28;20086;-81
2021/08/30 01:47:45;;;;;;;28.98;19.70;;;;;;;14.40;100.00;101723.09;4960056;28;20034;-82
2021/08/30 01:50:15;;;;;;;27.58;19.00;;;;;;;14.38;100.00;101709.22;4997685;28;20113;-82
2021/08/30 01:52:42;;;;;;;33.65;19.02;;;;;;;14.48;100.00;101730.28;4960717;28;20073;-80
2021/08/30 02:00:42;;;;;;;37.30;20.02;;;;;;;14.52;100.00;101722.91;4969857;28;20039;-82
2021/08/30 02:03:29;;;;;;;30.60;19.75;;;;;;;14.60;100.00;101730.97;4988734;28;20588;-82
2021/08/30 02:06:04;;;;;;;33.33;19.73;;;;;;;14.63;100.00;101724.53;4995949;28;20053;-82
2021/08/30 02:08:32;;;;;;;32.13;19.55;;;;;;;14.58;100.00;101719.72;4981901;28;20680;-80
2021/08/30 02:11:01;;;;;;;28.20;18.13;;;;;;;14.54;100.00;101718.28;4961028;28;20042;-82
2021/08/30 02:13:29;;;;;;;29.60;18.05;;;;;;;14.46;100.00;101721.69;4966307;28;20038;-82
2021/08/30 02:16:00;;;;;;;28.50;17.85;;;;;;;14.36;100.00;101719.09;4958856;28;20041;-82
2021/08/30 02:18:39;;;;;;;29.75;17.98;;;;;;;14.35;100.00;101717.47;4962066;28;20366;-82
2021/08/30 02:21:20;;;;;;;26.30;17.73;;;;;;;14.27;100.00;101716.53;4955263;28;20041;-82
2021/08/30 02:23:57;;;;;;;24.98;16.92;;;;;;;14.20;100.00;101725.03;4962161;28;20045;-81
2021/08/30 02:26:30;;;;;;;26.13;16.73;;;;;;;14.13;100.00;101715.22;4962541;28;20033;-83
2021/08/30 02:28:56;;;;;;;;;;;;;;;14.12;100.00;101717.00;4991724;28;20061;-80
2021/08/30 02:31:22;;;;;;;27.20;17.42;;;;;;;14.05;100.00;101708.00;4976217;28;20369;-81
2021/08/30 02:33:49;;;;;;;26.65;17.38;;;;;;;14.05;100.00;101721.19;4943124;28;20104;-82
2021/08/30 02:36:17;;;;;;;32.15;19.55;;;;;;;14.10;100.00;101721.59;4941413;28;20113;-81
2021/08/30 02:38:44;;;;;;;31.27;19.40;;;;;;;14.12;100.00;101721.44;4961616;28;20048;-81
2021/08/30 02:41:11;;;;;;;31.40;19.88;;;;;;;14.18;100.00;101715.56;4959502;28;20049;-83
2021/08/30 02:43:37;;;;;;;30.73;18.70;;;;;;;14.18;100.00;101718.22;4974691;28;20034;-81
2021/08/30 02:46:02;;;;;;;28.80;19.02;;;;;;;14.11;100.00;101718.00;4961442;28;20097;-81
2021/08/30 02:48:30;;;;;;;28.58;17.65;;;;;;;14.09;100.00;101719.09;4943884;28;20042;-82
2021/08/30 02:50:57;;;;;;;27.83;16.67;;;;;;;14.02;100.00;101716.22;4955102;28;20026;-83
2021/08/30 02:53:23;;;;;;;28.10;16.35;;;;;;;13.93;100.00;101712.63;4949556;28;20034;-83
2021/08/30 02:55:51;;;;;;;37.50;18.00;;;;;;;13.95;100.00;101723.88;4961275;28;20057;-80
2021/08/30 02:58:18;;;;;;;33.20;19.02;;;;;;;13.92;100.00;101710.13;4959894;28;20030;-78
2021/08/30 03:00:46;;;;;;;25.90;17.23;;;;;;;13.88;100.00;101725.44;4959499;28;20097;-79
2021/08/30 03:03:12;;;;;;;28.13;18.20;;;;;;;13.79;100.00;101707.84;4964694;28;20082;-81
2021/08/30 03:05:42;;;;;;;29.77;16.98;;;;;;;13.85;100.00;101711.72;4943533;28;20058;-80
2021/08/30 03:08:08;;;;;;;29.67;16.23;;;;;;;13.74;100.00;101708.25;4961793;28;20117;-81
2021/08/30 03:10:35;;;;;;;29.92;18.30;;;;;;;13.76;100.00;101713.41;4963414;28;20110;-82
2021/08/30 03:13:04;;;;;;;29.35;18.02;;;;;;;13.72;100.00;101715.47;4940329;28;20101;-79
2021/08/30 03:15:32;;;;;;;28.50;17.27;;;;;;;13.74;100.00;101715.34;4959189;28;20041;-79
2021/08/30 03:18:01;;;;;;;34.53;18.52;;;;;;;13.69;100.00;101709.66;4959258;28;20043;-81
2021/08/30 03:20:29;;;;;;;25.60;18.30;;;;;;;13.67;100.00;101708.97;4965654;28;20034;-81
2021/08/30 03:22:58;;;;;;;33.88;19.02;;;;;;;13.68;100.00;101713.28;4974576;28;20447;-80
2021/08/30 03:25:27;;;;;;;34.97;19.25;;;;;;;13.59;100.00;101712.34;4974905;28;20041;-80
2021/08/30 03:27:54;;;;;;;26.08;17.17;;;;;;;13.51;100.00;101715.69;4975337;28;20071;-81
2021/08/30 03:30:22;;;;;;;30.08;18.63;;;;;;;13.46;100.00;101711.81;4974691;28;20035;-81
2021/08/30 03:32:47;;;;;;;26.38;17.65;;;;;;;13.38;100.00;101715.97;4957054;28;20110;-81
2021/08/30 03:35:14;;;;;;;25.13;17.42;;;;;;;13.42;100.00;101719.16;4958097;28;20101;-81
2021/08/30 03:37:41;;;;;;;26.95;17.75;;;;;;;13.46;100.00;101720.53;4956727;28;20108;-80
2021/08/30 03:40:11;;;;;;;27.13;18.52;;;;;;;13.53;100.00;101726.09;4936418;28;20030;-81
2021/08/30 03:42:39;;;;;;;30.85;18.63;;;;;;;13.60;100.00;101722.75;4957158;28;20044;-80
2021/08/30 03:45:07;;;;;;;32.03;18.67;;;;;;;13.66;100.00;101723.16;4959043;28;20229;-81
2021/08/30 03:47:33;;;;;;;34.92;18.50;;;;;;;13.61;100.00;101719.13;4941378;28;20034;-81
2021/08/30 03:50:03;;;;;;;31.58;19.73;;;;;;;13.69;100.00;101720.22;4959230;28;20042;-80
2021/08/30 03:52:31;;;;;;;32.08;18.27;;;;;;;13.60;100.00;101711.38;4974695;28;20125;-80
2021/08/30 03:54:56;;;;;;;43.78;18.73;;;;;;;13.63;100.00;101719.81;4976755;28;20049;-81
2021/08/30 03:57:23;;;;;;;34.33;19.05;;;;;;;13.59;100.00;101710.53;4942052;28;20038;-80
2021/08/30 03:59:54;;;;;;;26.48;18.27;;;;;;;13.67;100.00;101714.25;4941233;28;20027;-81
2021/08/30 04:02:20;;;;;;;35.70;17.75;;;;;;;13.69;100.00;101728.94;4989665;28;20042;-78
2021/08/30 04:04:46;;;;;;;29.38;18.60;;;;;;;13.65;100.00;101722.31;4977660;28;20133;-83
2021/08/30 04:07:12;;;;;;;33.22;18.20;;;;;;;13.67;100.00;101730.06;4959939;28;20459;-78
2021/08/30 04:09:39;;;;;;;29.70;17.80;;;;;;;13.68;100.00;101727.28;4960912;28;20037;-77
2021/08/30 04:12:05;;;;;;;32.55;18.55;;;;;;;13.68;100.00;101729.94;4960265;28;20034;-80
2021/08/30 04:14:31;;;;;;;33.28;20.73;;;;;;;13.67;100.00;101730.06;4974829;28;20042;-80
2021/08/30 04:16:56;;;;;;;39.03;22.70;;;;;;;13.75;100.00;101731.03;4976276;28;20037;-81
2021/08/30 04:19:22;;;;;;;36.88;21.70;;;;;;;13.82;100.00;101734.75;4976676;28;20113;-81
2021/08/30 04:21:48;;;;;;;35.42;20.00;;;;;;;13.85;100.00;101730.16;4960227;28;20042;-81
2021/08/30 04:24:13;;;;;;;34.58;20.58;;;;;;;13.90;100.00;101734.03;4972617;28;20409;-81
2021/08/30 04:26:39;;;;;;;46.22;19.33;;;;;;;13.86;100.00;101726.53;4957834;28;20386;-79
2021/08/30 04:29:05;;;;;;;28.63;18.98;;;;;;;13.86;100.00;101740.56;4974745;28;20185;-82
2021/08/30 04:31:32;;;;;;;34.72;18.73;;;;;;;13.85;100.00;101736.28;4974840;28;20034;-81
2021/08/30 04:33:57;;;;;;;33.58;20.05;;;;;;;13.83;100.00;101743.50;4943096;28;20440;-81
2021/08/30 04:36:23;;;;;;;27.88;18.73;;;;;;;13.82;100.00;101741.81;4959176;28;20066;-81
2021/08/30 04:38:49;;;;;;;32.95;20.05;;;;;;;13.78;100.00;101746.53;4990383;28;20046;-82
2021/08/30 04:41:16;;;;;;;35.40;21.23;;;;;;;13.87;100.00;101751.97;4961933;28;20545;-81
2021/08/30 04:43:43;;;;;;;31.98;19.63;;;;;;;13.80;100.00;101743.78;4973700;28;20038;-80
2021/08/30 04:46:09;;;;;;;42.40;20.38;;;;;;;13.82;100.00;101749.72;4972739;28;20531;-80
2021/08/30 04:48:34;;;;;;;34.75;20.77;;;;;;;13.82;100.00;101755.00;4958465;28;20034;-81
2021/08/30 04:51:00;;;;;;;34.40;20.02;;;;;;;13.80;100.00;101755.13;4992504;28;20100;-80
2021/08/30 04:53:26;;;;;;;37.97;21.17;;;;;;;13.82;100.00;101752.38;4956543;28;20034;-82
2021/08/30 04:55:51;;;;;;;34.70;20.83;;;;;;;13.89;100.00;101768.47;4942225;28;20566;-81
2021/08/30 04:58:17;;;;;;;34.10;21.65;;;;;;;13.91;100.00;101759.41;4974168;28;20217;-80
2021/08/30 05:00:42;;;;;;;28.33;19.27;;;;;;;13.86;100.00;101761.66;4938164;28;20034;-82
2021/08/30 05:03:07;;;;;;;27.70;19.65;;;;;;;13.88;100.00;101753.59;4973494;28;20668;-82
2021/08/30 05:05:33;;;;;;;37.13;22.00;;;;;;;13.95;100.00;101763.44;4973128;28;20034;-79
2021/08/30 05:07:58;;;;;;;40.45;22.75;;;;;;;14.06;100.00;101762.44;4942229;28;20034;-82
2021/08/30 05:10:24;;;;;;;37.75;22.60;;;;;;;14.10;100.00;101770.88;4991655;28;20034;-82
2021/08/30 05:12:49;;;;;;;44.20;24.00;;;;;;;14.15;100.00;101761.56;4940014;28;20846;-82
2021/08/30 05:15:15;;;;;;;42.28;23.52;;;;;;;14.20;100.00;101759.34;4955050;28;20034;-82
2021/08/30 05:17:40;;;;;;;39.53;21.83;;;;;;;14.19;100.00;101768.22;4957554;28;20115;-81
2021/08/30 05:20:06;;;;;;;36.95;19.85;;;;;;;14.22;100.00;101769.72;4990853;28;20034;-79
2021/08/30 05:22:32;;;;;;;35.55;21.75;;;;;;;14.23;100.00;101766.13;4975404;28;20101;-78
2021/08/30 05:24:57;;;;;;;37.08;21.65;;;;;;;14.27;100.00;101767.47;4977287;28;20038;-79
2021/08/30 05:27:23;;;;;;;36.30;20.98;;;;;;;14.39;100.00;101765.47;4970199;28;20034;-81
2021/08/30 05:29:49;;;;;;;36.03;20.38;;;;;;;14.38;100.00;101756.72;4975832;28;20068;-79
2021/08/30 05:32:15;;;;;;;29.77;20.38;;;;;;;14.47;100.00;101775.31;4976855;28;20061;-80
2021/08/30 05:34:41;;;;;;;33.60;20.33;;;;;;;14.47;100.00;101773.50;4995298;28;20081;-78
2021/08/30 05:37:07;;;;;;;31.23;21.00;;;;;;;14.50;100.00;101767.09;4957122;28;20089;-81
2021/08/30 05:39:33;;;;;;;33.60;20.23;;;;;;;14.59;100.00;101771.53;4974275;28;20576;-79
2021/08/30 05:41:58;;;;;;;27.40;19.33;;;;;;;14.64;100.00;101768.47;4978871;28;20073;-80
2021/08/30 05:44:24;;;;;;;29.23;20.00;;;;;;;14.63;100.00;101772.06;4977511;28;20034;-82
2021/08/30 05:46:50;;;;;;;33.83;18.40;;;;;;;14.69;100.00;101772.31;4947635;28;20082;-80
2021/08/30 05:49:16;;;;;;;28.90;18.63;;;;;;;14.72;100.00;101779.91;4960765;28;20033;-80
2021/08/30 05:51:42;;;;;;;27.08;18.63;;;;;;;14.82;100.00;101784.31;4960385;28;20117;-81
2021/08/30 05:54:07;;;;;;;29.48;18.13;;;;;;;14.87;100.00;101782.06;4960658;28;20677;-81
2021/08/30 05:56:33;;;;;;;29.23;18.13;;;;;;;14.91;100.00;101776.31;4959660;28;20546;-79
2021/08/30 05:58:58;;;;;;;25.13;18.38;;;;;;;14.92;100.00;101771.88;4973859;28;20041;-77
2021/08/30 06:01:24;;;;;;;24.92;17.73;;;;;;;14.98;100.00;101782.66;4971847;28;20098;-80
2021/08/30 06:03:49;;;;;;;26.20;17.38;;;;;;;15.05;100.00;101768.84;4986441;28;20046;-79
2021/08/30 06:06:15;;;;;;;25.92;17.70;;;;;;;15.12;100.00;101776.03;4964652;28;20054;-78
2021/08/30 06:08:40;;;;;;;25.88;16.67;;;;;;;15.13;100.00;101771.59;4975871;28;20034;-79
2021/08/30 06:11:06;;;;;;;29.85;16.45;;;;;;;15.21;100.00;101776.94;4960608;28;20037;-80
2021/08/30 06:13:31;;;;;;;23.85;15.80;;;;;;;15.24;100.00;101773.16;4992668;28;20038;-79
2021/08/30 06:15:57;;;;;;;23.23;15.52;;;;;;;15.22;100.00;101785.69;4991914;28;20113;-80
2021/08/30 06:18:25;;;;;;;19.40;14.85;;;;;;;15.22;100.00;101777.75;4975031;28;20213;-81
2021/08/30 06:20:50;;;;;;;24.17;16.00;;;;;;;15.20;100.00;101777.94;4960003;28;20632;-80
2021/08/30 06:23:16;;;;;;;23.00;14.85;;;;;;;15.28;100.00;101780.63;4940932;28;20111;-81
2021/08/30 06:25:41;;;;;;;21.98;14.32;;;;;;;15.24;100.00;101773.16;4974095;28;20571;-81
2021/08/30 06:28:07;;;;;;;19.63;13.85;;;;;;;15.32;100.00;101779.34;4989945;28;20038;-79
2021/08/30 06:30:34;;;;;;;28.02;15.02;;;;;;;15.37;100.00;101778.91;4993120;28;20436;-79
2021/08/30 06:32:59;;;;;;;21.38;13.98;;;;;;;15.36;100.00;101767.47;4978815;28;20042;-81
2021/08/30 06:35:25;;;;;;;23.92;13.98;;;;;;;15.57;100.00;101784.81;4944606;28;20045;-80
2021/08/30 06:37:50;;;;;;;23.70;14.90;;;;;;;15.73;100.00;101790.28;4960062;28;20030;-78
2021/08/30 06:40:17;;;;;;;18.02;12.85;;;;;;;15.81;100.00;101783.38;4971816;28;20033;-78
2021/08/30 06:42:43;;;;;;;18.70;13.13;;;;;;;15.89;100.00;101796.66;4957707;28;20034;-78
2021/08/30 06:45:09;;;;;;;16.05;12.48;;;;;;;15.92;100.00;101786.59;4975467;28;20526;-80
2021/08/30 06:47:36;;;;;;;19.88;12.68;;;;;;;16.06;100.00;101797.56;4973913;28;20061;-79
2021/08/30 06:50:03;;;;;;;22.83;11.63;;;;;;;16.02;100.00;101786.47;4959692;28;20109;-81
2021/08/30 06:52:28;;;;;;;16.52;11.88;;;;;;;16.12;100.00;101797.78;4959772;28;20085;-80
2021/08/30 06:54:54;;;;;;;13.95;10.95;;;;;;;16.14;100.00;101790.53;4959651;28;20038;-80
2021/08/30 06:57:19;;;;;;;16.85;11.88;;;;;;;16.19;100.00;101797.16;4970973;28;20097;-78
2021/08/30 06:59:46;;;;;;;16.55;12.27;;;;;;;16.18;100.00;101793.69;4969308;28;20121;-82
2021/08/30 07:02:12;;;;;;;16.23;11.02;;;;;;;16.20;100.00;101788.22;4960676;28;20031;-82
2021/08/30 07:04:37;;;;;;;17.52;10.70;;;;;;;16.29;100.00;101797.84;4975385;28;20061;-83
2021/08/30 07:07:03;;;;;;;15.40;10.50;;;;;;;16.31;100.00;101803.81;4956282;28;20058;-83
2021/08/30 07:09:29;;;;;;;16.50;10.95;;;;;;;16.30;100.00;101804.81;4975832;28;20046;-81
2021/08/30 07:11:54;;;;;;;13.80;10.40;;;;;;;16.34;100.00;101811.47;4978310;28;20048;-81
2021/08/30 07:14:20;;;;;;;14.70;10.60;;;;;;;16.42;100.00;101810.66;4975410;28;20058;-80
2021/08/30 07:16:45;;;;;;;17.90;10.73;;;;;;;16.32;100.00;101806.31;4977422;28;20034;-82
2021/08/30 07:19:11;;;;;;;14.07;10.38;;;;;;;16.33;100.00;101802.69;4946330;28;20034;-79
2021/08/30 07:21:37;;;;;;;14.82;10.93;;;;;;;16.37;100.00;101803.22;4946272;28;20030;-79
2021/08/30 07:24:02;;;;;;;15.27;10.45;;;;;;;16.40;100.00;101807.34;5005553;28;20037;-79
2021/08/30 07:26:28;;;;;;;14.13;10.10;;;;;;;16.48;100.00;101810.00;4963895;28;20065;-80
2021/08/30 07:28:54;;;;;;;14.32;9.80;;;;;;;16.43;100.00;101812.34;4979871;28;20034;-84
2021/08/30 07:31:19;;;;;;;15.40;9.57;;;;;;;16.38;100.00;101819.91;4959892;28;20037;-81
2021/08/30 07:33:45;;;;;;;13.15;9.52;;;;;;;16.43;100.00;101812.34;4961402;28;20097;-80
2021/08/30 07:36:11;;;;;;;13.65;9.80;;;;;;;16.41;100.00;101814.31;4938171;28;20030;-82
2021/08/30 07:38:37;;;;;;;16.02;10.10;;;;;;;16.48;100.00;101813.50;4990718;28;20030;-81
2021/08/30 07:41:02;;;;;;;11.77;8.60;;;;;;;16.60;100.00;101821.16;4977679;28;20090;-80
2021/08/30 07:43:28;;;;;;;14.73;8.50;;;;;;;16.72;100.00;101818.03;4959836;28;20038;-80
2021/08/30 07:45:53;;;;;;;12.35;8.55;;;;;;;16.70;100.00;101814.72;4960423;28;20060;-82
2021/08/30 07:48:19;;;;;;;10.73;8.40;;;;;;;16.71;100.00;101818.22;4945514;28;20042;-83
2021/08/30 07:50:44;;;;;;;17.52;8.63;;;;;;;16.63;100.00;101828.78;4993780;28;20438;-82
2021/08/30 07:53:10;;;;;;;11.88;8.00;;;;;;;16.48;100.00;101816.16;4944504;28;20550;-83
2021/08/30 07:55:36;;;;;;;10.93;7.68;;;;;;;16.35;100.00;101821.91;4974686;28;20038;-79
2021/08/30 07:58:03;;;;;;;10.48;7.97;;;;;;;16.35;100.00;101811.31;4959465;28;20041;-82
2021/08/30 08:00:29;;;;;;;10.82;7.70;;;;;;;16.38;100.00;101822.56;4960732;28;20057;-80
2021/08/30 08:02:54;;;;;;;12.35;8.18;;;;;;;16.38;100.00;101815.44;4961725;28;20615;-83
2021/08/30 08:05:20;;;;;;;14.32;8.43;;;;;;;16.63;100.00;101818.19;4959679;28;20042;-80
2021/08/30 08:07:45;;;;;;;10.90;7.57;;;;;;;16.90;100.00;101819.81;4966055;28;20034;-81
2021/08/30 08:10:11;;;;;;;14.48;7.78;;;;;;;17.02;100.00;101815.84;4975716;28;20058;-84
2021/08/30 08:12:37;;;;;;;12.40;7.78;;;;;;;17.05;99.08;101827.97;4957157;28;20062;-81
2021/08/30 08:15:04;;;;;;;13.15;7.63;;;;;;;17.03;97.97;101817.50;4984971;28;20578;-80
2021/08/30 08:17:30;;;;;;;16.58;7.53;;;;;;;17.08;100.00;101827.63;4958875;28;20038;-79
2021/08/30 08:19:55;;;;;;;11.45;7.18;;;;;;;16.99;99.38;101826.78;4960678;28;20049;-81
2021/08/30 08:22:21;;;;;;;14.80;7.78;;;;;;;16.98;100.00;101829.59;4960215;28;20504;-80
2021/08/30 08:24:46;;;;;;;10.43;7.57;;;;;;;17.01;100.00;101837.19;4971129;28;20030;-81
2021/08/30 08:27:12;;;;;;;11.77;7.55;;;;;;;16.80;100.00;101824.38;4956187;28;20038;-80
2021/08/30 08:29:37;;;;;;;11.32;7.40;;;;;;;16.80;100.00;101832.31;4959082;28;20033;-80
2021/08/30 08:32:03;;;;;;;11.25;7.75;;;;;;;16.64;100.00;101841.88;4973852;28;20498;-79
2021/08/30 08:34:28;;;;;;;12.02;7.68;;;;;;;16.78;100.00;101835.13;4942222;28;20049;-81
2021/08/30 08:37:07;;;;;;;9.38;7.43;;;;;;;16.85;99.79;101827.41;4962794;28;20038;-82
2021/08/30 08:39:35;;;;;;;11.25;6.93;;;;;;;17.01;99.75;101835.41;4970170;28;20073;-81
2021/08/30 08:42:01;;;;;;;11.60;7.20;;;;;;;17.11;100.00;101836.06;4959999;28;20072;-80
2021/08/30 08:44:27;;;;;;;8.45;6.57;;;;;;;17.22;99.09;101834.94;4964167;28;20034;-79
2021/08/30 08:46:53;;;;;;;9.43;6.72;;;;;;;17.37;99.70;101848.38;4945992;28;20551;-82
2021/08/30 08:49:19;;;;;;;10.27;6.85;;;;;;;17.48;97.66;101836.63;4991784;28;20062;-80
2021/08/30 08:51:45;;;;;;;7.68;5.72;;;;;;;17.57;93.44;101835.59;4980887;28;20042;-83
2021/08/30 08:54:10;;;;;;;9.45;6.93;;;;;;;17.55;94.13;101834.94;4955813;28;20491;-80
2021/08/30 08:56:36;;;;;;;8.32;6.10;;;;;;;17.40;93.16;101839.25;4958748;28;20042;-79
2021/08/30 08:59:02;;;;;;;6.85;5.57;;;;;;;17.27;93.28;101832.63;4942516;28;20034;-80
2021/08/30 09:01:30;;;;;;;9.48;6.00;;;;;;;17.07;98.82;101837.41;4958628;28;20045;-82
2021/08/30 09:03:56;;;;;;;9.20;5.63;;;;;;;16.88;96.20;101843.81;4970646;28;20039;-83
2021/08/30 09:06:30;;;;;;;10.48;6.70;;;;;;;16.80;100.00;101850.84;4973592;28;20038;-79
2021/08/30 09:09:04;;;;;;;9.98;6.03;;;;;;;16.57;99.99;101850.63;4959211;28;20477;-82
2021/08/30 09:11:51;;;;;;;8.65;5.95;;;;;;;16.42;95.16;101847.72;4958525;28;20030;-81
2021/08/30 09:14:21;;;;;;;10.52;6.13;;;;;;;16.24;97.79;101842.53;4960250;28;20436;-81
2021/08/30 09:16:59;;;;;;;8.18;5.80;;;;;;;16.22;99.92;101857.69;4958200;28;20039;-82
2021/08/30 09:19:25;;;;;;;8.52;6.35;;;;;;;16.11;100.00;101856.16;4971304;28;20122;-83
2021/08/30 09:21:50;;;;;;;7.80;6.43;;;;;;;16.01;100.00;101848.34;4972624;28;20129;-84
2021/08/30 09:24:19;;;;;;;10.05;6.80;;;;;;;15.79;100.00;101841.72;4976045;28;20551;-82
2021/08/30 09:26:54;;;;;;;11.82;6.95;;;;;;;15.82;100.00;101857.28;4959483;28;20038;-81
2021/08/30 09:29:31;;;;;;;11.10;6.57;;;;;;;15.81;100.00;101854.81;4946263;28;20424;-84
2021/08/30 09:32:05;;;;;;;13.25;6.40;;;;;;;15.74;100.00;101855.41;4980840;28;20034;-83
2021/08/30 09:34:49;;;;;;;13.60;7.47;;;;;;;15.73;100.00;101858.19;4974599;28;20034;-80
2021/08/30 09:37:23;;;;;;;14.57;7.10;;;;;;;15.66;100.00;101857.97;4957998;28;20100;-80
2021/08/30 09:39:51;;;;;;;9.52;7.30;;;;;;;15.73;100.00;101852.91;4972426;28;20043;-81
2021/08/30 09:42:17;;;;;;;10.45;7.18;;;;;;;15.80;100.00;101848.66;4959047;28;20124;-81
2021/08/30 09:44:43;;;;;;;9.70;7.00;;;;;;;16.05;100.00;101864.72;4957621;28;20026;-82
2021/08/30 09:47:14;;;;;;;9.00;6.88;;;;;;;16.19;100.00;101863.31;4971634;28;20093;-82
2021/08/30 09:49:40;;;;;;;8.68;6.30;;;;;;;16.32;100.00;101875.16;4942803;28;20061;-81
2021/08/30 09:52:07;;;;;;;9.32;6.88;;;;;;;16.42;100.00;101869.72;4967378;28;20117;-78
2021/08/30 09:54:32;;;;;;;8.95;6.68;;;;;;;16.51;100.00;101870.63;4957134;28;20041;-77
2021/08/30 09:56:59;;;;;;;13.18;6.18;;;;;;;16.57;100.00;101867.31;4955764;28;20035;-80
2021/08/30 09:59:25;;;;;;;10.85;6.72;;;;;;;16.64;100.00;101863.06;4972591;28;20044;-79
2021/08/30 10:01:53;;;;;;;9.88;6.78;;;;;;;16.66;100.00;101863.72;4958803;28;20039;-81
2021/08/30 10:04:20;;;;;;;15.52;5.88;;;;;;;16.57;100.00;101867.31;4972625;28;20040;-80
2021/08/30 10:06:49;;;;;;;11.75;7.03;;;;;;;16.53;100.00;101869.47;4971966;28;20294;-83
2021/08/30 10:09:16;;;;;;;11.52;6.45;;;;;;;16.49;100.00;101868.13;4956435;28;20058;-84
2021/08/30 10:11:42;;;;;;;12.18;6.97;;;;;;;16.60;100.00;101866.19;4977119;28;20034;-80
2021/08/30 10:14:12;;;;;;;9.15;6.88;;;;;;;16.74;100.00;101863.78;4962766;28;20555;-82
2021/08/30 10:16:40;;;;;;;7.53;5.93;;;;;;;16.93;99.72;101868.00;4962425;28;20443;-82
2021/08/30 10:19:05;;;;;;;9.75;6.50;;;;;;;17.07;100.00;101861.25;4959356;28;20039;-81
2021/08/30 10:21:31;;;;;;;13.35;6.70;;;;;;;17.21;97.78;101861.59;4976718;28;20456;-81
2021/08/30 10:23:58;;;;;;;7.95;5.80;;;;;;;17.23;96.84;101862.28;4978501;28;20089;-81
2021/08/30 10:26:36;;;;;;;9.00;5.80;;;;;;;17.17;93.55;101862.94;4955508;28;20026;-84
2021/08/30 10:29:02;;;;;;;9.20;5.85;;;;;;;17.11;95.58;101862.56;4964772;28;20089;-81
2021/08/30 10:31:27;;;;;;;8.45;5.85;;;;;;;17.07;98.24;101863.06;4978512;28;20496;-81
2021/08/30 10:33:56;;;;;;;11.95;6.38;;;;;;;16.97;97.06;101867.69;4993354;28;20053;-84
2021/08/30 10:36:29;;;;;;;10.80;6.25;;;;;;;16.86;96.77;101869.63;4946273;28;20042;-81
2021/08/30 10:39:06;;;;;;;13.30;6.40;;;;;;;16.64;96.60;101871.00;4978975;28;20058;-81
2021/08/30 10:41:44;;;;;;;9.50;6.50;;;;;;;16.56;100.00;101868.34;4961568;28;20030;-82
2021/08/30 10:44:16;;;;;;;9.80;6.57;;;;;;;16.47;99.83;101863.97;4975229;28;20080;-83
2021/08/30 10:46:51;;;;;;;10.10;6.85;;;;;;;16.33;100.00;101871.53;4951641;28;20031;-83
2021/08/30 10:49:26;;;;;;;8.35;6.95;;;;;;;16.31;100.00;101854.13;4947877;28;20073;-82
2021/08/30 10:52:10;;;;;;;14.95;6.82;;;;;;;16.45;100.00;101866.78;4980344;28;20038;-85
2021/08/30 10:54:35;;;;;;;10.50;6.72;;;;;;;16.79;96.95;101871.22;4991011;28;20034;-81
2021/08/30 10:57:03;;;;;;;11.35;6.47;;;;;;;17.34;96.24;101869.91;4977163;28;20043;-81
2021/08/30 10:59:30;;;;;;;8.95;6.65;;;;;;;17.91;94.45;101874.44;4963996;28;20032;-84
2021/08/30 11:02:03;;;;;;;8.40;5.78;;;;;;;18.02;91.22;101870.59;4996949;28;20042;-84
2021/08/30 11:04:37;;;;;;;11.13;5.93;;;;;;;18.19;89.60;101874.88;4963343;28;20068;-83
2021/08/30 11:07:07;;;;;;;8.57;6.07;;;;;;;18.47;88.25;101871.84;4947501;28;20041;-83
2021/08/30 11:09:34;;;;;;;7.88;5.32;;;;;;;18.67;87.98;101870.44;4963612;28;20492;-80
2021/08/30 11:12:14;;;;;;;6.95;5.35;;;;;;;18.63;85.64;101869.13;4949235;28;20034;-81
2021/08/30 11:14:40;;;;;;;8.13;5.60;;;;;;;18.59;88.98;101870.47;4961593;28;20088;-82